Time;durP1;ratioP1;P1;durP2;ratioP2;P2;SDS_P1;SDS_P2;PMS_P1;PMS_P2;Temp;Humidity;BMP_temperature;BMP_pressure;BME280_temperature;BME280_humidity;BME280_pressure;Samples;Min_cycle;Max_cycle;Signal;HPM_P1;HPM_P2
2021/10/19 00:00:06;;;;;;;25.25;13.35;;;29.90;86.80;;;;;;5062993;28;20023;-57
2021/10/19 00:02:54;;;;;;;28.00;12.05;;;29.90;86.70;;;;;;5064819;28;20049;-55
2021/10/19 00:05:19;;;;;;;21.30;10.75;;;29.90;86.50;;;;;;5062608;28;20033;-56
2021/10/19 00:07:46;;;;;;;22.58;10.13;;;29.90;86.40;;;;;;5064624;28;20041;-56
2021/10/19 00:10:16;;;;;;;19.52;8.35;;;29.90;86.30;;;;;;5064427;28;20031;-54
2021/10/19 00:12:43;;;;;;;17.90;7.63;;;29.90;86.40;;;;;;5064276;28;20041;-54
2021/10/19 00:15:12;;;;;;;18.75;7.90;;;29.90;86.40;;;;;;5063262;28;20025;-55
2021/10/19 00:17:44;;;;;;;22.55;11.52;;;29.80;86.70;;;;;;5064074;28;20035;-54
2021/10/19 00:20:11;;;;;;;;;;;29.90;86.70;;;;;;5064174;28;20072;-55
2021/10/19 00:22:38;;;;;;;18.65;7.68;;;29.90;86.70;;;;;;5063657;28;19907;-56
2021/10/19 00:25:06;;;;;;;20.42;6.72;;;29.80;86.60;;;;;;5064022;28;20209;-54
2021/10/19 00:27:37;;;;;;;12.98;5.20;;;29.80;86.00;;;;;;5064181;28;20017;-52
2021/10/19 00:30:07;;;;;;;10.15;5.35;;;29.80;86.00;;;;;;5065094;28;20313;-54
2021/10/19 00:32:34;;;;;;;10.38;5.03;;;29.80;86.00;;;;;;5062840;28;20120;-54
2021/10/19 00:35:01;;;;;;;12.50;4.75;;;29.70;85.90;;;;;;5063701;28;20300;-54
2021/10/19 00:37:28;;;;;;;9.30;4.72;;;29.80;85.90;;;;;;5063999;28;20182;-54
2021/10/19 00:39:54;;;;;;;13.88;4.60;;;29.70;86.00;;;;;;5063695;28;20021;-54
2021/10/19 00:42:21;;;;;;;9.05;4.80;;;29.80;86.00;;;;;;5063442;28;20017;-55
2021/10/19 00:44:48;;;;;;;11.98;5.05;;;29.70;85.60;;;;;;5063726;28;20094;-56
2021/10/19 00:47:20;;;;;;;12.63;4.97;;;29.70;85.80;;;;;;5066786;28;20031;-55
2021/10/19 00:49:48;;;;;;;12.05;4.63;;;29.70;85.40;;;;;;5067766;28;20331;-51
2021/10/19 00:52:15;;;;;;;15.40;4.38;;;29.70;85.40;;;;;;5067702;28;20045;-57
2021/10/19 00:54:43;;;;;;;10.00;4.65;;;29.70;85.30;;;;;;5067631;28;20251;-55
2021/10/19 00:57:10;;;;;;;8.68;4.55;;;29.70;85.10;;;;;;5068308;28;20099;-54
2021/10/19 00:59:43;;;;;;;12.82;4.47;;;29.70;85.10;;;;;;5067513;28;20099;-53
2021/10/19 01:02:11;;;;;;;9.80;4.10;;;29.70;85.20;;;;;;5067891;28;20025;-54
2021/10/19 01:04:37;;;;;;;10.98;4.53;;;29.70;85.20;;;;;;5067723;28;20050;-53
2021/10/19 01:07:05;;;;;;;13.65;4.15;;;29.70;85.20;;;;;;5067988;28;20029;-52
2021/10/19 01:09:32;;;;;;;5.05;3.47;;;29.70;85.10;;;;;;5067580;28;20020;-58
2021/10/19 01:11:58;;;;;;;11.25;4.43;;;29.70;84.90;;;;;;5068183;28;20039;-54
2021/10/19 01:14:25;;;;;;;11.13;3.72;;;29.70;84.80;;;;;;5067505;28;20020;-52
2021/10/19 01:16:53;;;;;;;8.55;3.63;;;29.70;84.70;;;;;;5068235;28;20305;-55
2021/10/19 01:19:24;;;;;;;15.18;3.15;;;29.60;84.60;;;;;;5067256;28;20025;-53
2021/10/19 01:21:59;;;;;;;12.75;3.50;;;29.60;84.40;;;;;;5067419;28;20025;-54
2021/10/19 01:24:28;;;;;;;11.05;3.70;;;29.60;84.60;;;;;;5067114;28;20075;-55
2021/10/19 01:26:55;;;;;;;9.75;3.10;;;29.60;84.50;;;;;;5066019;28;20086;-54
2021/10/19 01:29:21;;;;;;;8.98;3.15;;;29.60;84.30;;;;;;5066604;28;20045;-54
2021/10/19 01:31:51;;;;;;;10.80;3.03;;;29.60;84.30;;;;;;5065757;28;20024;-54
2021/10/19 01:34:18;;;;;;;7.30;2.95;;;29.60;84.70;;;;;;5067018;28;20044;-55
2021/10/19 01:36:46;;;;;;;7.55;2.90;;;29.60;84.20;;;;;;5067613;28;20041;-53
2021/10/19 01:39:13;;;;;;;5.53;2.50;;;29.60;84.10;;;;;;5066199;28;20031;-53
2021/10/19 01:41:45;;;;;;;6.32;2.65;;;29.50;83.90;;;;;;5067565;28;20324;-53
2021/10/19 01:44:14;;;;;;;5.45;2.67;;;29.50;83.80;;;;;;5066933;28;20021;-56
2021/10/19 01:46:40;;;;;;;5.90;2.58;;;29.50;83.60;;;;;;5067368;28;20060;-56
2021/10/19 01:49:07;;;;;;;5.78;2.20;;;29.50;83.50;;;;;;5066966;28;20128;-55
2021/10/19 01:51:34;;;;;;;3.47;2.28;;;29.50;83.60;;;;;;5067781;28;20032;-54
2021/10/19 01:54:01;;;;;;;4.95;2.60;;;29.50;83.40;;;;;;5067678;28;20063;-54
2021/10/19 01:56:32;;;;;;;7.05;2.30;;;29.40;83.90;;;;;;5068354;28;20088;-54
2021/10/19 01:58:58;;;;;;;9.85;2.85;;;29.40;83.20;;;;;;5066314;28;20031;-55
2021/10/19 02:01:25;;;;;;;4.97;2.20;;;29.40;83.30;;;;;;5066295;28;20025;-52
2021/10/19 02:03:52;;;;;;;6.10;2.47;;;29.40;82.90;;;;;;5066819;28;20084;-53
2021/10/19 02:06:25;;;;;;;8.10;2.38;;;29.30;83.10;;;;;;5067234;28;20055;-52
2021/10/19 02:08:53;;;;;;;5.40;2.40;;;29.10;83.50;;;;;;5065996;28;20024;-49
2021/10/19 02:11:22;;;;;;;5.65;2.30;;;29.00;83.40;;;;;;5067693;28;20021;-55
2021/10/19 02:13:49;;;;;;;4.72;2.25;;;29.00;83.80;;;;;;5066119;28;20088;-50
2021/10/19 02:16:15;;;;;;;6.05;2.20;;;29.00;84.30;;;;;;5066484;28;20096;-53
2021/10/19 02:18:42;;;;;;;6.88;2.47;;;28.90;84.20;;;;;;5065255;28;20071;-52
2021/10/19 02:21:09;;;;;;;6.32;2.40;;;28.90;84.40;;;;;;5066132;28;20024;-49
2021/10/19 02:23:35;;;;;;;6.65;2.33;;;28.80;84.50;;;;;;5066354;28;20017;-53
2021/10/19 02:26:02;;;;;;;9.35;2.53;;;28.80;84.80;;;;;;5066563;28;20048;-50
2021/10/19 02:28:28;;;;;;;7.85;2.33;;;28.80;85.00;;;;;;5065779;28;20052;-53
2021/10/19 02:30:55;;;;;;;7.65;2.72;;;28.70;85.00;;;;;;5064916;28;20041;-48
2021/10/19 02:33:22;;;;;;;9.82;2.45;;;28.70;85.40;;;;;;5065953;28;20025;-47
2021/10/19 02:35:49;;;;;;;5.70;2.60;;;28.60;85.20;;;;;;5065957;28;20029;-50
2021/10/19 02:38:15;;;;;;;6.32;2.25;;;28.60;85.20;;;;;;5065723;28;20035;-52
2021/10/19 02:40:42;;;;;;;6.47;2.55;;;28.60;85.30;;;;;;5065990;28;20032;-52
2021/10/19 02:43:09;;;;;;;6.63;2.67;;;28.60;85.40;;;;;;5065757;28;20021;-50
2021/10/19 02:45:36;;;;;;;4.22;2.50;;;28.50;85.20;;;;;;5064709;28;20020;-53
2021/10/19 02:48:03;;;;;;;4.53;2.03;;;28.60;84.90;;;;;;5064647;28;20024;-55
2021/10/19 02:50:30;;;;;;;6.25;2.53;;;28.60;84.80;;;;;;5064411;28;20355;-53
2021/10/19 02:52:56;;;;;;;4.72;2.22;;;28.60;85.10;;;;;;5064627;28;20025;-56
2021/10/19 02:55:23;;;;;;;4.57;2.17;;;28.70;84.80;;;;;;5066297;28;20297;-55
2021/10/19 02:57:50;;;;;;;6.32;2.28;;;28.70;84.50;;;;;;5065401;28;20017;-54
2021/10/19 03:00:17;;;;;;;5.72;2.08;;;28.70;84.00;;;;;;5083571;28;20054;-55
2021/10/19 03:02:44;;;;;;;4.80;2.33;;;28.80;83.90;;;;;;5086181;28;20028;-54
2021/10/19 03:05:11;;;;;;;5.22;2.30;;;28.80;83.70;;;;;;5085052;28;20060;-53
2021/10/19 03:07:38;;;;;;;4.90;2.42;;;28.90;83.70;;;;;;5086290;28;20044;-55
2021/10/19 03:10:05;;;;;;;4.03;2.22;;;28.90;83.50;;;;;;5085493;28;20286;-56
2021/10/19 03:12:32;;;;;;;4.13;2.28;;;28.90;83.40;;;;;;5085729;28;20036;-57
2021/10/19 03:14:59;;;;;;;6.13;2.35;;;28.90;83.30;;;;;;5085538;28;20023;-55
2021/10/19 03:17:26;;;;;;;13.13;2.67;;;28.90;83.10;;;;;;5086077;28;20020;-54
2021/10/19 03:19:52;;;;;;;8.13;2.38;;;28.90;83.10;;;;;;5085466;28;20027;-54
2021/10/19 03:22:19;;;;;;;5.05;2.30;;;28.90;83.00;;;;;;5085371;28;20075;-56
2021/10/19 03:24:46;;;;;;;4.22;2.20;;;28.90;83.00;;;;;;5085705;28;20020;-56
2021/10/19 03:27:13;;;;;;;9.15;2.22;;;28.90;83.00;;;;;;5086052;28;20368;-58
2021/10/19 03:29:41;;;;;;;6.28;2.05;;;28.90;82.90;;;;;;5085215;28;20051;-56
2021/10/19 03:32:08;;;;;;;3.20;2.05;;;28.90;83.00;;;;;;5085863;28;20031;-56
2021/10/19 03:34:34;;;;;;;6.75;2.33;;;28.90;82.90;;;;;;5085321;28;20083;-54
2021/10/19 03:37:01;;;;;;;4.07;2.40;;;28.90;82.90;;;;;;5085834;28;20024;-53
2021/10/19 03:39:28;;;;;;;3.80;2.17;;;29.00;82.90;;;;;;5085283;28;20020;-60
2021/10/19 03:41:54;;;;;;;6.20;2.47;;;28.90;82.90;;;;;;5085832;28;20025;-55
2021/10/19 03:44:21;;;;;;;4.75;2.10;;;28.90;83.10;;;;;;5085140;28;20065;-58
2021/10/19 03:46:47;;;;;;;4.22;2.03;;;28.90;83.10;;;;;;5084261;28;20095;-56
2021/10/19 03:49:14;;;;;;;11.32;2.47;;;28.90;83.00;;;;;;5085018;28;20012;-53
2021/10/19 03:51:41;;;;;;;6.50;2.15;;;28.90;83.00;;;;;;5084813;28;20044;-57
2021/10/19 03:54:07;;;;;;;5.32;2.25;;;28.90;83.00;;;;;;5085055;28;20172;-54
2021/10/19 03:56:34;;;;;;;7.18;2.42;;;28.90;83.00;;;;;;5067791;28;20029;-57
2021/10/19 03:59:01;;;;;;;8.70;2.22;;;28.90;82.80;;;;;;5084702;28;20062;-54
2021/10/19 04:01:27;;;;;;;4.22;1.98;;;28.90;82.80;;;;;;5083887;28;20028;-57
2021/10/19 04:03:54;;;;;;;6.18;2.33;;;28.80;82.60;;;;;;5084827;28;20048;-54
2021/10/19 04:06:21;;;;;;;8.13;2.30;;;28.80;82.80;;;;;;5084977;28;20288;-56
2021/10/19 04:08:48;;;;;;;7.10;3.00;;;28.80;82.60;;;;;;5083952;28;20107;-54
2021/10/19 04:11:15;;;;;;;4.63;2.85;;;28.80;82.80;;;;;;5083200;28;20313;-53
2021/10/19 04:13:42;;;;;;;13.13;3.40;;;28.80;82.90;;;;;;5083843;28;20087;-61
2021/10/19 04:16:12;;;;;;;8.23;4.05;;;28.80;82.90;;;;;;5086312;28;20039;-54
2021/10/19 04:18:42;;;;;;;6.80;3.65;;;28.80;82.90;;;;;;5085396;28;20042;-56
2021/10/19 04:21:12;;;;;;;7.47;4.00;;;28.80;83.00;;;;;;5084092;28;20075;-56
2021/10/19 04:23:39;;;;;;;8.55;3.75;;;28.80;82.90;;;;;;5083231;28;20103;-53
2021/10/19 04:26:06;;;;;;;7.97;3.17;;;28.70;83.00;;;;;;5084797;28;20024;-58
2021/10/19 04:28:33;;;;;;;6.97;3.05;;;28.70;83.10;;;;;;5084294;28;20048;-58
2021/10/19 04:31:01;;;;;;;6.03;2.70;;;28.70;83.20;;;;;;5084922;28;20029;-55
2021/10/19 04:33:27;;;;;;;5.10;2.40;;;28.70;83.50;;;;;;5084922;28;20239;-57
2021/10/19 04:35:54;;;;;;;5.35;2.60;;;28.60;82.90;;;;;;5084114;28;20028;-53
2021/10/19 04:38:21;;;;;;;9.98;2.88;;;28.60;82.80;;;;;;5084207;28;20189;-55
2021/10/19 04:40:47;;;;;;;4.13;2.13;;;28.60;82.70;;;;;;5084130;28;20029;-56
2021/10/19 04:43:14;;;;;;;4.60;2.10;;;28.60;82.60;;;;;;5083103;28;20017;-55
2021/10/19 04:45:41;;;;;;;7.55;2.30;;;28.60;82.40;;;;;;5084610;28;20021;-53
2021/10/19 04:48:08;;;;;;;5.20;3.10;;;28.60;82.40;;;;;;5083289;28;20065;-57
2021/10/19 04:50:36;;;;;;;7.72;3.50;;;28.60;82.70;;;;;;5083415;28;20025;-54
2021/10/19 04:53:09;;;;;;;5.75;2.70;;;28.60;83.00;;;;;;5084107;28;20241;-54
2021/10/19 04:55:36;;;;;;;3.20;2.60;;;28.60;83.10;;;;;;5083459;28;20033;-55
2021/10/19 04:58:03;;;;;;;6.88;3.05;;;28.60;83.30;;;;;;5084199;28;20020;-54
2021/10/19 05:00:30;;;;;;;7.25;2.80;;;28.50;83.70;;;;;;5084746;28;20025;-53
2021/10/19 05:02:57;;;;;;;5.72;2.83;;;28.50;84.00;;;;;;5084483;28;20236;-58
2021/10/19 05:05:24;;;;;;;10.25;3.30;;;28.50;84.20;;;;;;5084378;28;20017;-54
2021/10/19 05:07:52;;;;;;;6.40;3.08;;;28.50;84.50;;;;;;5084124;28;20040;-61
2021/10/19 05:10:19;;;;;;;6.60;2.85;;;28.50;85.00;;;;;;5083998;28;20020;-55
2021/10/19 05:12:49;;;;;;;6.00;3.28;;;28.50;85.20;;;;;;5084285;28;20305;-54
2021/10/19 05:15:21;;;;;;;10.73;3.65;;;28.40;85.30;;;;;;5084108;28;20239;-53
2021/10/19 05:17:48;;;;;;;8.95;3.70;;;28.40;85.60;;;;;;5085305;28;20016;-55
2021/10/19 05:20:15;;;;;;;6.28;3.10;;;28.50;86.00;;;;;;5083710;28;20066;-54
2021/10/19 05:22:45;;;;;;;9.32;3.97;;;28.40;86.20;;;;;;5083698;28;20040;-55
2021/10/19 05:25:12;;;;;;;8.52;3.42;;;28.40;86.40;;;;;;5084930;28;20023;-54
2021/10/19 05:27:40;;;;;;;10.57;3.50;;;28.40;86.70;;;;;;5084397;28;20095;-54
2021/10/19 05:30:08;;;;;;;9.93;4.03;;;28.40;86.80;;;;;;5084716;28;20017;-54
2021/10/19 05:32:35;;;;;;;8.20;3.65;;;28.40;87.20;;;;;;5084760;28;20082;-57
2021/10/19 05:35:02;;;;;;;11.77;3.70;;;28.40;87.30;;;;;;5087151;28;20012;-55
2021/10/19 05:37:29;;;;;;;11.65;3.80;;;28.40;87.50;;;;;;5087960;28;20044;-55
2021/10/19 05:40:11;;;;;;;8.25;3.08;;;28.40;87.50;;;;;;5087549;28;20021;-55
2021/10/19 05:42:38;;;;;;;9.23;3.45;;;28.40;87.60;;;;;;5087694;28;20066;-56
2021/10/19 05:45:06;;;;;;;6.65;3.80;;;28.40;87.80;;;;;;5087528;28;20012;-56
2021/10/19 05:47:33;;;;;;;9.43;3.80;;;28.40;88.00;;;;;;5087608;28;20339;-55
2021/10/19 05:50:00;;;;;;;10.63;3.38;;;28.30;88.10;;;;;;5087163;28;20027;-57
2021/10/19 05:52:34;;;;;;;8.30;3.65;;;28.30;88.00;;;;;;5086118;28;20020;-54
2021/10/19 05:55:01;;;;;;;6.07;3.55;;;28.30;88.10;;;;;;5087122;28;20021;-59
2021/10/19 05:57:28;;;;;;;9.00;3.60;;;28.30;87.90;;;;;;5087693;28;20032;-54
2021/10/19 05:59:55;;;;;;;9.45;3.22;;;28.30;87.70;;;;;;5085880;28;20039;-55
2021/10/19 06:02:21;;;;;;;9.57;3.05;;;28.30;87.20;;;;;;5087048;28;20013;-51
2021/10/19 06:04:48;;;;;;;9.98;3.05;;;28.20;87.00;;;;;;5086874;28;20021;-59
2021/10/19 06:07:15;;;;;;;5.72;2.75;;;28.20;87.00;;;;;;5086985;28;20008;-59
2021/10/19 06:09:42;;;;;;;5.65;2.88;;;28.20;87.00;;;;;;5087316;28;20036;-63
2021/10/19 06:12:09;;;;;;;4.68;2.70;;;28.20;86.90;;;;;;5086970;28;20287;-59
2021/10/19 06:14:36;;;;;;;5.88;2.58;;;28.20;86.90;;;;;;5086990;28;20036;-55
2021/10/19 06:17:05;;;;;;;5.53;2.58;;;28.20;86.80;;;;;;5086378;28;20013;-55
2021/10/19 06:19:34;;;;;;;4.60;2.30;;;28.20;87.10;;;;;;5086746;28;20355;-54
2021/10/19 06:22:01;;;;;;;3.97;2.42;;;28.10;87.00;;;;;;5086562;28;20189;-55
2021/10/19 06:24:28;;;;;;;4.90;2.67;;;28.10;87.20;;;;;;5086619;28;20027;-59
2021/10/19 06:26:54;;;;;;;5.57;2.65;;;28.10;87.10;;;;;;5086594;28;20085;-55
2021/10/19 06:29:21;;;;;;;5.28;2.40;;;28.20;87.20;;;;;;5086351;28;20078;-57
2021/10/19 06:31:48;;;;;;;5.75;2.63;;;28.10;87.20;;;;;;5086074;28;20032;-54
2021/10/19 06:34:15;;;;;;;5.82;2.30;;;28.20;87.20;;;;;;5086261;28;20016;-54
2021/10/19 06:36:42;;;;;;;5.38;2.40;;;28.10;86.90;;;;;;5085989;28;20040;-55
2021/10/19 06:39:08;;;;;;;5.40;2.80;;;28.20;87.00;;;;;;5086473;28;20074;-55
2021/10/19 06:41:35;;;;;;;3.85;2.22;;;28.20;86.80;;;;;;5086323;28;20028;-56
2021/10/19 06:44:02;;;;;;;4.10;2.00;;;28.20;86.60;;;;;;5085680;28;20087;-59
2021/10/19 06:46:28;;;;;;;3.95;2.25;;;28.20;86.40;;;;;;5085764;28;20020;-57
2021/10/19 06:48:55;;;;;;;5.85;2.60;;;28.20;86.30;;;;;;5086130;28;20028;-56
2021/10/19 06:51:22;;;;;;;3.03;2.33;;;28.10;86.00;;;;;;5085835;28;20096;-61
2021/10/19 06:53:49;;;;;;;3.10;2.03;;;28.10;85.60;;;;;;5085759;28;20020;-59
2021/10/19 06:56:15;;;;;;;3.45;2.00;;;28.20;85.50;;;;;;5085647;28;20028;-54
2021/10/19 06:58:42;;;;;;;4.97;2.45;;;28.10;85.40;;;;;;5085566;28;20048;-58
2021/10/19 07:01:09;;;;;;;5.53;2.15;;;28.10;85.10;;;;;;5085375;28;20020;-55
2021/10/19 07:03:37;;;;;;;3.75;1.98;;;28.10;84.90;;;;;;5085817;28;20368;-59
2021/10/19 07:06:05;;;;;;;7.63;2.25;;;28.10;84.70;;;;;;5085528;28;20025;-61
2021/10/19 07:08:36;;;;;;;4.80;2.35;;;28.10;84.30;;;;;;5085691;28;20028;-59
2021/10/19 07:11:02;;;;;;;8.18;2.13;;;28.10;84.20;;;;;;5086113;28;20017;-54
2021/10/19 07:13:29;;;;;;;4.75;2.17;;;28.20;84.10;;;;;;5088956;28;20035;-54
2021/10/19 07:15:56;;;;;;;6.20;2.20;;;28.10;83.90;;;;;;5085217;28;20040;-60
2021/10/19 07:18:24;;;;;;;4.00;2.17;;;28.10;83.90;;;;;;5085438;28;20046;-59
2021/10/19 07:20:52;;;;;;;5.30;2.30;;;28.10;83.70;;;;;;5086016;28;20031;-60
2021/10/19 07:23:19;;;;;;;3.90;2.38;;;28.10;83.60;;;;;;5085149;28;20209;-55
2021/10/19 07:25:46;;;;;;;3.80;1.92;;;28.10;83.50;;;;;;5085322;28;20024;-55
2021/10/19 07:28:13;;;;;;;5.65;2.30;;;28.10;83.20;;;;;;5085349;28;20048;-62
2021/10/19 07:30:40;;;;;;;7.00;2.30;;;28.10;83.00;;;;;;5085027;28;20028;-52
2021/10/19 07:33:07;;;;;;;7.82;2.25;;;28.10;82.70;;;;;;5084989;28;20043;-48
2021/10/19 07:35:33;;;;;;;5.07;2.20;;;28.10;82.50;;;;;;5084960;28;20027;-54
2021/10/19 07:38:00;;;;;;;6.80;2.42;;;28.10;82.80;;;;;;5084524;28;20154;-60
2021/10/19 07:40:26;;;;;;;3.95;2.30;;;28.10;82.60;;;;;;5084911;28;20091;-54
2021/10/19 07:42:53;;;;;;;6.60;2.28;;;28.10;82.40;;;;;;5084894;28;20320;-54
2021/10/19 07:45:21;;;;;;;5.63;2.28;;;28.10;82.60;;;;;;5084548;28;20032;-51
2021/10/19 07:47:48;;;;;;;6.28;2.58;;;28.10;82.50;;;;;;5083907;28;20017;-54
2021/10/19 07:50:19;;;;;;;11.85;2.40;;;28.10;82.50;;;;;;5085250;28;20061;-54
2021/10/19 07:52:48;;;;;;;2.53;2.10;;;28.10;82.70;;;;;;5084728;28;20062;-55
2021/10/19 07:55:15;;;;;;;4.18;2.38;;;28.10;82.70;;;;;;5084686;28;20087;-55
2021/10/19 07:57:46;;;;;;;8.50;2.60;;;28.10;82.50;;;;;;5083930;28;20017;-61
2021/10/19 08:00:15;;;;;;;8.70;2.30;;;28.00;82.40;;;;;;5084882;28;20197;-61
2021/10/19 08:02:42;;;;;;;4.53;2.70;;;28.10;83.00;;;;;;5084475;28;20233;-57
2021/10/19 08:05:13;;;;;;;3.97;2.38;;;28.10;82.60;;;;;;5085611;28;20238;-56
2021/10/19 08:07:48;;;;;;;5.22;2.33;;;28.10;82.70;;;;;;5084589;28;20051;-52
2021/10/19 08:10:18;;;;;;;8.25;2.65;;;28.00;82.70;;;;;;5085388;28;20047;-55
2021/10/19 08:26:02;;;;;;;4.50;2.90;;;28.00;82.40;;;;;;5163220;27;20656;-57
2021/10/19 08:28:31;;;;;;;5.60;2.80;;;28.20;82.50;;;;;;5162928;27;20076;-48
2021/10/19 08:30:59;;;;;;;5.55;3.00;;;28.10;82.90;;;;;;5162877;27;20015;-49
2021/10/19 08:33:25;;;;;;;6.10;2.78;;;28.10;83.30;;;;;;5162842;27;20027;-49
2021/10/19 08:35:52;;;;;;;4.05;2.72;;;28.10;83.50;;;;;;5162644;27;20307;-48
2021/10/19 08:38:19;;;;;;;4.15;2.60;;;28.00;83.70;;;;;;5162750;27;20019;-51
2021/10/19 08:40:45;;;;;;;7.13;3.08;;;28.00;83.90;;;;;;5162746;27;20023;-49
2021/10/19 08:43:14;;;;;;;5.15;2.83;;;28.00;84.00;;;;;;5162549;27;20052;-51
2021/10/19 08:45:40;;;;;;;7.53;2.75;;;28.00;84.30;;;;;;5162700;27;20060;-45
2021/10/19 08:48:09;;;;;;;5.85;2.45;;;28.00;84.40;;;;;;5162668;27;20323;-46
2021/10/19 08:50:36;;;;;;;5.20;2.53;;;28.00;84.70;;;;;;5162383;27;20030;-50
2021/10/19 08:53:02;;;;;;;3.30;2.50;;;27.90;85.20;;;;;;5162755;27;20082;-53
2021/10/19 08:55:29;;;;;;;4.85;2.47;;;27.90;84.70;;;;;;5162420;27;20036;-51
2021/10/19 08:58:02;;;;;;;5.18;2.22;;;27.90;84.90;;;;;;5162296;27;20116;-51
2021/10/19 09:00:30;;;;;;;5.70;2.63;;;27.90;85.00;;;;;;5161115;27;20049;-51
2021/10/19 09:02:57;;;;;;;11.98;3.28;;;27.90;85.00;;;;;;5162341;27;20011;-50
2021/10/19 09:05:26;;;;;;;4.47;2.40;;;27.80;85.00;;;;;;5162666;27;20211;-45
2021/10/19 09:08:09;;;;;;;7.97;2.78;;;27.80;85.20;;;;;;5162207;27;20075;-48
2021/10/19 09:10:38;;;;;;;4.10;2.38;;;27.80;85.30;;;;;;5162029;27;20034;-51
2021/10/19 09:13:07;;;;;;;6.93;2.25;;;27.80;85.30;;;;;;5162063;27;20014;-49
2021/10/19 09:15:45;;;;;;;5.10;2.17;;;27.80;85.50;;;;;;5162017;27;20018;-50
2021/10/19 09:18:13;;;;;;;7.47;2.65;;;27.80;85.90;;;;;;5161975;27;20241;-45
2021/10/19 09:20:46;;;;;;;4.90;2.40;;;27.70;86.00;;;;;;5162020;27;20083;-48
2021/10/19 09:23:14;;;;;;;5.90;2.70;;;27.70;86.20;;;;;;5161708;27;20015;-42
2021/10/19 09:25:43;;;;;;;6.78;2.85;;;27.70;86.10;;;;;;5155140;27;20099;-46
2021/10/19 09:28:13;;;;;;;7.72;2.58;;;27.70;86.20;;;;;;5147860;27;20038;-47
2021/10/19 09:30:51;;;;;;;9.45;2.65;;;27.70;86.30;;;;;;5147857;27;20030;-47
2021/10/19 09:33:20;;;;;;;4.80;2.38;;;27.70;85.90;;;;;;5147826;27;20034;-44
2021/10/19 09:35:53;;;;;;;11.05;2.95;;;27.70;85.70;;;;;;5147694;27;20025;-46
2021/10/19 09:38:20;;;;;;;6.00;2.80;;;27.70;85.70;;;;;;5147849;27;20016;-45
2021/10/19 09:40:52;;;;;;;8.32;2.78;;;27.70;85.60;;;;;;5147770;27;20211;-42
2021/10/19 09:43:25;;;;;;;5.05;2.50;;;27.70;85.60;;;;;;5147580;27;20037;-47
2021/10/19 09:45:55;;;;;;;7.30;2.38;;;27.70;85.40;;;;;;5147648;27;20095;-48
2021/10/19 09:48:31;;;;;;;11.27;3.25;;;27.70;85.30;;;;;;5147488;27;20011;-51
2021/10/19 09:51:02;;;;;;;7.45;2.90;;;27.70;85.20;;;;;;5147571;27;20128;-48
2021/10/19 09:53:29;;;;;;;7.85;2.65;;;27.70;85.10;;;;;;5147494;27;20050;-45
2021/10/19 09:55:57;;;;;;;9.98;2.40;;;27.70;85.10;;;;;;5147632;27;20068;-52
2021/10/19 09:58:25;;;;;;;4.57;2.58;;;27.70;85.10;;;;;;5147426;27;20035;-44
2021/10/19 10:00:52;;;;;;;7.30;2.40;;;27.70;85.40;;;;;;5147386;27;20056;-51
2021/10/19 10:03:19;;;;;;;6.50;2.58;;;27.70;85.60;;;;;;5147194;27;20015;-49
2021/10/19 10:05:47;;;;;;;6.28;3.00;;;27.70;85.70;;;;;;5147267;27;20023;-45
2021/10/19 10:08:33;;;;;;;5.03;2.42;;;27.70;85.70;;;;;;5147219;27;20038;-47
2021/10/19 10:11:00;;;;;;;9.55;2.75;;;27.70;85.70;;;;;;5147282;27;20019;-51
2021/10/19 10:13:27;;;;;;;11.65;2.90;;;27.70;85.90;;;;;;5147146;27;20082;-45
2021/10/19 10:15:54;;;;;;;8.00;2.72;;;27.60;86.00;;;;;;5146932;27;20019;-49
2021/10/19 10:18:34;;;;;;;9.23;2.78;;;27.60;86.10;;;;;;5147153;27;20007;-49
2021/10/19 10:21:16;;;;;;;7.30;2.65;;;27.60;86.20;;;;;;5146844;27;20022;-45
2021/10/19 10:23:43;;;;;;;11.60;3.25;;;27.60;86.30;;;;;;5146953;27;20023;-45
2021/10/19 10:26:25;;;;;;;6.05;2.65;;;27.60;86.40;;;;;;5146713;27;20071;-49
2021/10/19 10:28:52;;;;;;;13.65;2.95;;;27.60;86.20;;;;;;5147012;27;20023;-45
2021/10/19 10:31:24;;;;;;;9.10;2.72;;;27.60;86.10;;;;;;5146540;27;20031;-49
2021/10/19 10:34:02;;;;;;;6.07;2.63;;;27.60;86.20;;;;;;5146776;27;20038;-46
2021/10/19 10:36:39;;;;;;;6.32;2.78;;;27.60;86.30;;;;;;5146630;27;20023;-49
2021/10/19 10:39:07;;;;;;;7.90;2.88;;;27.50;86.40;;;;;;5146220;27;20094;-54
2021/10/19 10:41:43;;;;;;;8.13;3.35;;;27.60;86.50;;;;;;5146561;27;20015;-45
2021/10/19 10:44:11;;;;;;;16.55;4.28;;;27.50;86.60;;;;;;5146267;27;20026;-45
2021/10/19 10:46:40;;;;;;;14.23;4.50;;;27.50;86.90;;;;;;5146519;27;20067;-44
2021/10/19 10:49:11;;;;;;;16.67;4.32;;;27.50;87.10;;;;;;5146485;27;20321;-47
2021/10/19 10:53:01;;;;;;;14.90;4.10;;;27.50;87.00;;;;;;5121121;27;20403;-53
2021/10/19 10:55:49;;;;;;;8.63;4.10;;;27.50;87.50;;;;;;5121814;28;20117;-53
2021/10/19 10:58:26;;;;;;;9.70;3.58;;;27.50;87.30;;;;;;5120531;28;20316;-46
2021/10/19 11:00:53;;;;;;;12.68;4.10;;;27.50;87.10;;;;;;5121114;28;20035;-56
2021/10/19 11:03:21;;;;;;;13.60;4.32;;;27.50;87.20;;;;;;5121580;28;20027;-59
2021/10/19 11:05:59;;;;;;;8.13;3.83;;;27.50;87.10;;;;;;5121673;28;20046;-64
2021/10/19 11:08:34;;;;;;;12.88;4.38;;;27.60;87.10;;;;;;5119706;28;20031;-61
2021/10/19 11:11:12;;;;;;;9.70;3.72;;;27.60;87.30;;;;;;5119776;28;20120;-48
2021/10/19 11:13:54;;;;;;;10.60;4.10;;;27.50;87.30;;;;;;5119607;28;20031;-47
2021/10/19 11:16:39;;;;;;;12.93;4.55;;;27.50;87.30;;;;;;5119922;28;20027;-44
2021/10/19 11:19:27;;;;;;;10.65;5.03;;;27.60;87.00;;;;;;5120029;28;20015;-51
2021/10/19 11:22:06;;;;;;;10.52;4.55;;;27.60;86.80;;;;;;5120853;28;20020;-45
2021/10/19 11:24:35;;;;;;;6.70;4.50;;;27.60;86.80;;;;;;5121230;28;20016;-47
2021/10/19 11:27:03;;;;;;;7.95;4.53;;;27.60;86.80;;;;;;5121669;28;20023;-51
2021/10/19 11:29:33;;;;;;;8.65;3.95;;;27.60;86.80;;;;;;5121030;28;20024;-52
2021/10/19 11:32:01;;;;;;;7.47;3.63;;;27.60;86.60;;;;;;5121535;28;20034;-54
2021/10/19 11:34:28;;;;;;;7.15;3.92;;;27.60;86.60;;;;;;5121116;28;20019;-59
2021/10/19 11:36:54;;;;;;;11.98;3.33;;;27.60;86.40;;;;;;5121262;28;20027;-58
2021/10/19 11:39:21;;;;;;;7.28;3.40;;;27.60;86.40;;;;;;5120904;28;20042;-51
2021/10/19 11:41:56;;;;;;;7.75;3.38;;;27.60;86.20;;;;;;5120886;28;20047;-55
2021/10/19 11:44:34;;;;;;;6.03;3.00;;;27.60;86.10;;;;;;5120778;28;20023;-43
2021/10/19 11:47:02;;;;;;;8.65;3.60;;;27.60;86.30;;;;;;5121231;28;20091;-46
2021/10/19 11:49:38;;;;;;;6.70;2.95;;;27.60;86.20;;;;;;5120627;28;20172;-47
2021/10/19 11:52:05;;;;;;;7.22;2.92;;;27.60;86.10;;;;;;5120565;28;20120;-51
2021/10/19 11:54:32;;;;;;;6.68;3.00;;;27.60;85.90;;;;;;5120715;28;20020;-47
2021/10/19 11:57:05;;;;;;;9.73;2.80;;;27.70;86.60;;;;;;5119250;28;20335;-47
2021/10/19 11:59:50;;;;;;;4.38;2.47;;;27.70;86.10;;;;;;5120575;28;20065;-47
2021/10/19 12:02:18;;;;;;;15.35;3.00;;;27.70;86.10;;;;;;5117691;28;20024;-45
2021/10/19 12:04:46;;;;;;;5.50;2.38;;;27.70;86.30;;;;;;5107029;28;20023;-45
2021/10/19 12:07:24;;;;;;;5.75;2.58;;;27.70;86.20;;;;;;5107352;28;20028;-44
2021/10/19 12:09:51;;;;;;;12.70;2.50;;;27.70;86.20;;;;;;5106908;28;20020;-47
2021/10/19 12:12:25;;;;;;;6.60;2.78;;;27.70;86.30;;;;;;5107185;28;20031;-52
2021/10/19 12:14:56;;;;;;;6.68;2.97;;;27.70;86.30;;;;;;5106575;28;20016;-50
2021/10/19 12:17:23;;;;;;;6.43;2.72;;;27.80;86.40;;;;;;5107220;28;20024;-53
2021/10/19 12:19:56;;;;;;;6.15;2.65;;;27.80;86.50;;;;;;5106633;28;20330;-57
2021/10/19 12:22:35;;;;;;;6.68;2.70;;;27.80;86.80;;;;;;5107131;28;20036;-59
2021/10/19 12:25:05;;;;;;;8.80;2.72;;;27.80;87.10;;;;;;5106614;28;20016;-54
2021/10/19 12:27:31;;;;;;;7.50;3.08;;;27.80;87.20;;;;;;5106305;28;20039;-53
2021/10/19 12:29:58;;;;;;;8.30;3.28;;;27.80;87.30;;;;;;5106446;28;20398;-53
2021/10/19 12:32:35;;;;;;;7.93;3.20;;;27.80;87.30;;;;;;5106781;28;20024;-59
2021/10/19 12:35:02;;;;;;;7.60;3.15;;;27.80;87.50;;;;;;5106361;28;20043;-52
2021/10/19 12:37:34;;;;;;;7.63;3.47;;;27.80;87.80;;;;;;5106742;28;20031;-56
2021/10/19 12:40:03;;;;;;;8.93;3.40;;;27.80;88.00;;;;;;5106100;28;20049;-54
2021/10/19 12:42:30;;;;;;;7.63;3.10;;;27.90;88.10;;;;;;5106146;28;20277;-50
2021/10/19 12:44:57;;;;;;;10.65;3.58;;;27.90;88.50;;;;;;5105076;28;20019;-53
2021/10/19 12:47:24;;;;;;;10.95;3.58;;;27.90;88.40;;;;;;5106423;28;20085;-53
2021/10/19 12:49:53;;;;;;;5.60;3.28;;;27.90;88.50;;;;;;5106105;28;20215;-48
2021/10/19 12:52:20;;;;;;;11.80;3.85;;;27.90;88.50;;;;;;5105869;28;20324;-51
2021/10/19 12:54:47;;;;;;;11.40;3.10;;;28.00;88.60;;;;;;5105805;28;20308;-52
2021/10/19 12:57:14;;;;;;;12.40;3.63;;;28.00;88.90;;;;;;5106210;28;20020;-56
2021/10/19 12:59:44;;;;;;;12.68;3.85;;;28.00;88.90;;;;;;5105902;28;20079;-48
2021/10/19 13:02:11;;;;;;;13.73;3.70;;;28.10;88.60;;;;;;5105987;28;20034;-50
2021/10/19 13:04:37;;;;;;;10.25;3.53;;;28.10;88.50;;;;;;5105691;28;20023;-54
2021/10/19 13:07:04;;;;;;;8.98;3.30;;;28.10;88.30;;;;;;5106190;28;20034;-48